createdAt,value
2019-06-15T00:11:05.635Z,19.00
2019-06-15T00:21:14.308Z,19.00
2019-06-15T00:26:18.599Z,19.00
2019-06-15T00:31:22.914Z,19.00
2019-06-15T00:56:43.246Z,18.70
2019-06-15T01:06:51.419Z,18.70
2019-06-15T01:17:00.161Z,18.60
2019-06-15T01:22:04.527Z,18.50
2019-06-15T01:37:17.058Z,18.30
2019-06-15T02:12:46.042Z,18.40
2019-06-15T02:38:06.708Z,18.40
2019-06-15T02:58:23.169Z,18.30
2019-06-15T03:08:31.653Z,18.20
2019-06-15T03:13:36.306Z,18.10
2019-06-15T03:18:40.923Z,18.00
2019-06-15T03:23:45.226Z,18.00
2019-06-15T03:28:49.773Z,18.00
2019-06-15T03:38:58.178Z,18.00
2019-06-15T03:44:02.492Z,18.10
2019-06-15T03:49:07.042Z,18.10
2019-06-15T03:54:11.334Z,18.00
2019-06-15T03:59:15.902Z,18.00
2019-06-15T04:09:24.619Z,18.20
2019-06-15T04:24:37.197Z,18.30
2019-06-15T04:39:49.503Z,18.40
2019-06-15T04:44:54.045Z,18.50
2019-06-15T04:55:02.486Z,18.50
2019-06-15T05:00:10.084Z,18.60
2019-06-15T05:26:35.029Z,18.60
2019-06-15T05:36:43.444Z,18.60
2019-06-15T05:51:56.826Z,18.60
2019-06-15T05:57:01.124Z,18.60
2019-06-15T06:32:31.619Z,19.50
2019-06-15T06:37:36.921Z,19.70
2019-06-15T07:23:17.342Z,22.60
2019-06-15T07:28:21.636Z,22.60
2019-06-15T07:38:30.034Z,24.60
2019-06-15T07:48:38.718Z,25.50
2019-06-15T07:53:43.029Z,25.40
2019-06-15T08:03:51.773Z,24.10
2019-06-15T08:14:00.307Z,24.10
2019-06-15T08:59:36.300Z,24.70
2019-06-15T09:14:49.532Z,25.50
2019-06-15T09:19:53.811Z,25.60
2019-06-15T09:40:11.897Z,26.20
2019-06-15T09:45:16.402Z,26.20
2019-06-15T09:55:24.836Z,26.50
2019-06-15T10:10:37.838Z,25.20
2019-06-15T10:20:45.998Z,24.60
2019-06-15T10:46:06.714Z,23.50
2019-06-15T10:51:11.074Z,23.50
2019-06-15T10:56:15.700Z,23.80
2019-06-15T11:06:24.490Z,24.00
2019-06-15T11:21:36.978Z,23.90
2019-06-15T11:31:46.455Z,23.60
2019-06-15T11:41:55.105Z,23.00
2019-06-15T12:02:11.339Z,23.00
2019-06-15T12:32:36.624Z,23.70
2019-06-15T12:42:45.931Z,24.00
2019-06-15T12:47:50.218Z,24.10
2019-06-15T12:52:54.516Z,24.40
2019-06-15T12:57:58.810Z,24.40
2019-06-15T13:03:03.619Z,24.30
2019-06-15T13:13:12.038Z,24.10
2019-06-15T13:18:16.327Z,24.00
2019-06-15T13:28:24.527Z,23.60
2019-06-15T13:38:33.447Z,23.60
2019-06-15T13:43:37.767Z,23.90
2019-06-15T13:48:42.098Z,24.00
2019-06-15T14:14:02.727Z,24.50
2019-06-15T14:29:17.450Z,24.50
2019-06-15T14:34:21.084Z,24.40
2019-06-15T14:39:26.082Z,24.40
2019-06-15T14:54:40.055Z,24.50
2019-06-15T14:59:55.452Z,24.50
2019-06-15T15:04:50.597Z,24.40
2019-06-15T15:09:56.753Z,24.10
2019-06-15T15:30:26.872Z,24.10
2019-06-15T15:40:36.508Z,24.20
2019-06-15T15:45:40.749Z,24.20
2019-06-15T16:41:33.024Z,24.10
2019-06-15T17:17:05.622Z,23.50
2019-06-15T17:37:26.683Z,23.10
2019-06-15T17:52:40.217Z,23.00
2019-06-15T17:57:46.495Z,23.00
2019-06-15T18:02:50.771Z,23.10
2019-06-15T18:18:07.161Z,23.10
2019-06-15T18:23:11.142Z,23.00
2019-06-15T18:33:21.689Z,22.80
2019-06-15T19:03:48.934Z,22.40
2019-06-15T19:08:53.474Z,22.40
2019-06-15T19:13:57.787Z,22.20
2019-06-15T19:19:02.347Z,22.20
2019-06-15T19:24:07.373Z,22.10
2019-06-15T19:34:16.723Z,21.90
2019-06-15T19:39:21.462Z,21.80
2019-06-15T19:44:26.773Z,21.60
2019-06-15T19:49:33.130Z,21.50
2019-06-15T19:54:37.431Z,21.40
2019-06-15T20:14:56.705Z,21.20
2019-06-15T20:20:01.185Z,21.20
2019-06-15T20:45:27.591Z,20.90
2019-06-15T20:50:32.133Z,20.80
2019-06-15T21:00:41.990Z,20.70
2019-06-15T21:15:56.816Z,20.40
2019-06-15T21:46:26.641Z,20.20
2019-06-15T21:56:36.938Z,19.90
2019-06-15T22:01:41.509Z,19.80
2019-06-15T22:06:47.702Z,19.70
2019-06-15T22:16:56.951Z,19.70
2019-06-15T22:22:01.305Z,19.70
2019-06-15T22:32:11.207Z,19.70
2019-06-15T22:47:27.058Z,19.70
2019-06-15T22:52:31.543Z,19.70
2019-06-15T22:57:37.170Z,19.80
2019-06-15T23:07:47.188Z,19.70
2019-06-15T23:12:51.905Z,19.80
2019-06-15T23:17:57.178Z,19.80
2019-06-15T23:23:01.593Z,19.70
2019-06-15T23:28:07.098Z,19.70
2019-06-15T23:33:11.554Z,19.70
2019-06-15T23:58:34.006Z,19.70
